Current | Forecast
Updated: 3:50 AM EET on December 11, 2017
Observed at Chrysopouli, Greece
Temperature 1°C
Humidity 75%
Dew Point -3°C
Wind North at 0 km/h
Pressure 1020 hPa (Steady)
Conditions Clear
Visibility -
UV N/A
Clouds
Yesterday's Maximum 14°C
Yesterday's Minimum 2°C approx.
Yesterday's Heating Degree Days 19 approx.
Sunrise7:36 AM EET
Sunset4:54 PM EET
Moon Rise12:40 AM EET
Moon Set1:25 PM EET
Moon PhaseMoon Phase
Last Quarter
Raw METARMETAR LGKV 110150Z 00000KT CAVOK 01/M03 Q1020


Monday
. High: 71° F.
Tuesday
. High: 75° F.
Wednesday
. High: 77° F.
Thursday
. High: 77° F.
Friday
. High: 78° F.
Saturday
. High: 77° F.
Sunday
. High: 73° F.
Monday
. High: 75° F.

Units: English | Metric

Find the Weather for any City, State or Zipcode, or Country:

U.S. State List | Severe Weather | Tropical Storms | Ski Conditions
United States | Canada | Central America | South America | Asia | Europe | Australia | Africa | Islands

Weather Underground

© Copyright 2017
The Weather Company, LLC